createdAt,value
2022-12-23T00:00:34.373Z,0.80
2022-12-23T00:03:36.571Z,1.10
2022-12-23T00:06:38.591Z,0.87
2022-12-23T00:09:40.502Z,0.83
2022-12-23T00:13:01.179Z,0.73
2022-12-23T00:16:09.327Z,1.17
2022-12-23T00:19:12.424Z,1.03
2022-12-23T00:22:14.336Z,1.13
2022-12-23T00:25:16.567Z,1.00
2022-12-23T00:28:21.673Z,0.70
2022-12-23T00:31:24.046Z,0.90
2022-12-23T00:34:26.061Z,1.13
2022-12-23T00:37:30.926Z,1.20
2022-12-23T00:40:52.142Z,1.27
2022-12-23T00:43:54.159Z,0.90
2022-12-23T00:46:56.358Z,1.30
2022-12-23T00:50:00.512Z,1.20
2022-12-23T00:53:02.432Z,1.20
2022-12-23T00:56:04.498Z,1.73
2022-12-23T00:59:06.617Z,1.57
2022-12-23T01:02:29.936Z,1.83
2022-12-23T01:05:37.952Z,1.57
2022-12-23T01:08:40.627Z,1.20
2022-12-23T01:11:43.038Z,1.50
2022-12-23T01:14:45.155Z,1.70
2022-12-23T01:17:47.259Z,1.60
2022-12-23T01:20:49.140Z,1.90
2022-12-23T01:23:51.179Z,1.53
2022-12-23T01:26:53.213Z,1.50
2022-12-23T01:29:55.242Z,1.27
2022-12-23T01:32:57.171Z,1.57
2022-12-23T01:36:01.895Z,1.37
2022-12-23T01:39:03.914Z,1.33
2022-12-23T01:42:36.415Z,1.37
2022-12-23T01:45:38.976Z,1.07
2022-12-23T01:48:42.674Z,1.40
2022-12-23T01:51:44.803Z,1.47
2022-12-23T01:54:47.159Z,1.50
2022-12-23T01:57:49.364Z,1.43
2022-12-23T02:01:10.601Z,1.30
2022-12-23T02:04:16.555Z,1.40
2022-12-23T02:07:38.364Z,1.50
2022-12-23T02:11:10.983Z,1.70
2022-12-23T02:15:09.644Z,1.80
2022-12-23T02:18:42.361Z,2.00
2022-12-23T02:21:50.481Z,2.40
2022-12-23T02:25:09.328Z,2.33
2022-12-23T02:28:37.342Z,2.70
2022-12-23T02:31:57.751Z,2.50
2022-12-23T02:35:13.048Z,2.33
2022-12-23T02:38:47.313Z,2.20
2022-12-23T02:42:04.595Z,2.20
2022-12-23T02:45:11.108Z,2.03
2022-12-23T02:48:34.921Z,2.00
2022-12-23T02:51:41.977Z,2.53
2022-12-23T02:54:52.757Z,2.17
2022-12-23T02:57:55.716Z,2.03
2022-12-23T03:00:58.868Z,2.13
2022-12-23T03:04:01.076Z,1.87
2022-12-23T03:07:07.646Z,1.70
2022-12-23T03:10:16.571Z,2.03
2022-12-23T03:13:33.507Z,1.57
2022-12-23T03:17:05.029Z,1.50
2022-12-23T03:20:15.776Z,1.47
2022-12-23T03:23:19.889Z,1.40
2022-12-23T03:26:27.307Z,1.00
2022-12-23T03:29:34.479Z,1.30
2022-12-23T03:32:41.931Z,1.20
2022-12-23T03:35:47.659Z,1.50
2022-12-23T03:38:50.655Z,1.30
2022-12-23T03:42:01.366Z,0.93
2022-12-23T03:45:37.566Z,1.17
2022-12-23T03:48:38.103Z,0.93
2022-12-23T03:51:47.147Z,0.40
2022-12-23T03:54:58.155Z,1.07
2022-12-23T03:58:20.528Z,0.70
2022-12-23T04:01:30.977Z,0.53
2022-12-23T04:04:33.137Z,0.90
2022-12-23T04:07:39.337Z,0.83
2022-12-23T04:10:41.422Z,0.90
2022-12-23T04:13:43.365Z,0.73
2022-12-23T04:16:46.368Z,1.00
2022-12-23T04:19:48.383Z,0.60
2022-12-23T04:22:50.880Z,0.90
2022-12-23T04:25:52.808Z,0.60
2022-12-23T04:28:55.062Z,1.00
2022-12-23T04:31:57.031Z,0.90
2022-12-23T04:34:59.249Z,0.67
2022-12-23T04:38:01.178Z,0.87
2022-12-23T04:41:03.215Z,0.80
2022-12-23T04:44:05.768Z,1.73
2022-12-23T04:47:07.828Z,0.60
2022-12-23T04:50:14.203Z,1.33
2022-12-23T04:53:16.515Z,0.87
2022-12-23T04:56:18.767Z,0.40
2022-12-23T04:59:21.122Z,1.40
2022-12-23T05:02:23.287Z,0.80
2022-12-23T05:05:25.846Z,0.60
2022-12-23T05:08:28.264Z,0.60
2022-12-23T05:11:30.418Z,0.60
2022-12-23T05:14:32.388Z,0.40
2022-12-23T05:17:35.394Z,0.40
2022-12-23T05:20:37.252Z,0.23
2022-12-23T05:23:39.377Z,0.50
2022-12-23T05:26:44.888Z,0.50
2022-12-23T05:29:50.141Z,0.40
2022-12-23T05:32:55.954Z,0.40
2022-12-23T05:35:58.146Z,0.43
2022-12-23T05:39:00.030Z,0.50
2022-12-23T05:42:02.022Z,0.60
2022-12-23T05:45:04.266Z,0.47
2022-12-23T05:48:06.466Z,0.60
2022-12-23T05:51:08.319Z,0.50
2022-12-23T05:54:10.457Z,0.77
2022-12-23T05:57:12.411Z,1.30
2022-12-23T06:00:15.445Z,0.53
2022-12-23T06:03:17.501Z,0.70
2022-12-23T06:06:19.720Z,0.40
2022-12-23T06:09:21.702Z,0.40
2022-12-23T06:12:23.701Z,0.50
2022-12-23T06:15:25.573Z,0.50
2022-12-23T06:18:28.598Z,0.30
2022-12-23T06:21:30.514Z,0.40
2022-12-23T06:24:32.491Z,0.70
2022-12-23T06:27:34.773Z,0.50
2022-12-23T06:30:37.406Z,0.40
2022-12-23T06:33:39.299Z,0.57
2022-12-23T06:36:41.254Z,0.70
2022-12-23T06:39:43.353Z,0.40
2022-12-23T06:42:45.787Z,0.50
2022-12-23T06:45:48.959Z,0.40
2022-12-23T06:48:50.974Z,0.40
2022-12-23T06:51:52.992Z,0.60
2022-12-23T06:54:55.006Z,0.93
2022-12-23T06:57:57.094Z,0.70
2022-12-23T07:00:59.374Z,1.10
2022-12-23T07:04:02.227Z,0.57
2022-12-23T07:07:04.305Z,0.70
2022-12-23T07:10:07.152Z,0.70
2022-12-23T07:13:09.146Z,0.63
2022-12-23T07:16:11.133Z,0.90
2022-12-23T07:19:13.120Z,0.57
2022-12-23T07:22:15.230Z,0.63
2022-12-23T07:25:17.267Z,0.80
2022-12-23T07:28:19.196Z,0.70
2022-12-23T07:31:21.284Z,0.50
2022-12-23T07:34:24.300Z,0.77
2022-12-23T07:37:26.278Z,0.73
2022-12-23T07:40:28.578Z,0.40
2022-12-23T07:43:30.552Z,0.80
2022-12-23T07:46:32.596Z,0.67
2022-12-23T07:49:34.683Z,0.60
2022-12-23T07:52:36.627Z,0.90
2022-12-23T07:55:38.537Z,0.70
2022-12-23T07:58:40.557Z,0.70
2022-12-23T08:01:42.909Z,0.63
2022-12-23T08:04:46.496Z,0.80
2022-12-23T08:07:50.298Z,1.00
2022-12-23T08:10:57.516Z,1.10
2022-12-23T08:14:00.132Z,0.70
2022-12-23T08:17:02.389Z,0.80
2022-12-23T08:20:04.664Z,0.60
2022-12-23T08:23:06.541Z,0.77
2022-12-23T08:26:17.219Z,0.90
2022-12-23T08:29:19.418Z,0.60
2022-12-23T08:32:21.453Z,1.00
2022-12-23T08:35:23.902Z,0.70
2022-12-23T08:38:26.340Z,0.60
2022-12-23T08:41:31.637Z,0.50
2022-12-23T08:44:33.686Z,0.70
2022-12-23T08:47:36.159Z,0.63
2022-12-23T08:50:42.485Z,1.70
2022-12-23T08:53:44.880Z,0.87
2022-12-23T08:56:46.865Z,1.30
2022-12-23T08:59:48.909Z,0.70
2022-12-23T09:02:51.030Z,1.10
2022-12-23T09:05:53.121Z,1.20
2022-12-23T09:08:55.433Z,1.60
2022-12-23T09:11:57.359Z,1.50
2022-12-23T09:15:00.018Z,1.60
2022-12-23T09:18:01.965Z,2.57
2022-12-23T09:21:10.217Z,1.53
2022-12-23T09:24:12.248Z,1.40
2022-12-23T09:27:14.271Z,1.20
2022-12-23T09:30:16.369Z,1.40
2022-12-23T09:33:19.277Z,1.67
2022-12-23T09:36:22.820Z,1.77
2022-12-23T09:39:25.014Z,1.47
2022-12-23T09:42:45.325Z,1.40
2022-12-23T09:46:08.948Z,1.10
2022-12-23T09:49:14.377Z,1.03
2022-12-23T09:52:48.723Z,0.80
2022-12-23T09:56:12.427Z,0.57
2022-12-23T09:59:23.547Z,0.77
2022-12-23T10:02:33.949Z,0.60
2022-12-23T10:06:14.654Z,0.80
2022-12-23T10:09:17.829Z,0.50
2022-12-23T10:12:41.923Z,0.67
2022-12-23T10:15:47.700Z,0.63
2022-12-23T10:18:52.831Z,1.43
2022-12-23T10:22:02.418Z,2.97
2022-12-23T10:25:14.608Z,2.67
2022-12-23T10:28:17.651Z,0.60
2022-12-23T10:31:39.862Z,0.60
2022-12-23T10:35:00.760Z,0.60
2022-12-23T10:38:30.769Z,0.50
2022-12-23T10:42:02.065Z,0.40
2022-12-23T10:45:13.711Z,0.70
2022-12-23T10:48:33.188Z,0.70
2022-12-23T10:51:51.579Z,0.70
2022-12-23T10:54:54.498Z,0.50
2022-12-23T10:58:07.505Z,0.70
2022-12-23T11:01:21.814Z,0.70
2022-12-23T11:04:37.584Z,0.60
2022-12-23T11:07:45.190Z,0.50
2022-12-23T11:10:48.467Z,0.60
2022-12-23T11:13:51.728Z,0.67
2022-12-23T11:16:54.300Z,0.57
2022-12-23T11:20:11.442Z,0.60
2022-12-23T11:23:36.794Z,0.70
2022-12-23T11:26:39.333Z,0.40
2022-12-23T11:29:46.606Z,0.60
2022-12-23T11:32:48.856Z,0.67
2022-12-23T11:36:24.104Z,0.50
2022-12-23T11:39:27.449Z,0.60
2022-12-23T11:42:30.919Z,0.90
2022-12-23T11:45:37.331Z,0.53
2022-12-23T11:48:39.262Z,0.60
2022-12-23T11:51:41.964Z,0.80
2022-12-23T11:54:54.425Z,0.50
2022-12-23T11:57:57.151Z,0.50
2022-12-23T12:01:01.419Z,0.50
2022-12-23T12:04:17.321Z,0.50
2022-12-23T12:07:19.999Z,0.50
2022-12-23T12:10:26.989Z,0.70
2022-12-23T12:13:37.443Z,0.50
2022-12-23T12:17:15.053Z,0.63
2022-12-23T12:20:30.180Z,0.40
2022-12-23T12:23:32.322Z,0.60
2022-12-23T12:26:36.393Z,0.70
2022-12-23T12:29:49.208Z,0.70
2022-12-23T12:33:08.510Z,0.87
2022-12-23T12:36:16.840Z,0.93
2022-12-23T12:39:25.348Z,0.70
2022-12-23T12:42:34.080Z,0.70
2022-12-23T12:45:46.405Z,4.57
2022-12-23T12:49:31.238Z,2.60
2022-12-23T12:52:40.295Z,1.50
2022-12-23T12:55:46.480Z,0.67
2022-12-23T12:58:48.451Z,0.60
2022-12-23T13:01:57.772Z,0.80
2022-12-23T13:05:18.311Z,0.97
2022-12-23T13:08:46.814Z,0.60
2022-12-23T13:12:07.227Z,0.50
2022-12-23T13:15:27.948Z,0.77
2022-12-23T13:18:32.805Z,0.70
2022-12-23T13:21:52.322Z,0.80
2022-12-23T13:25:01.314Z,0.60
2022-12-23T13:28:31.519Z,0.50
2022-12-23T13:31:54.736Z,0.43
2022-12-23T13:35:33.866Z,0.60
2022-12-23T13:39:28.236Z,0.30
2022-12-23T13:42:40.894Z,0.50
2022-12-23T13:45:45.174Z,0.43
2022-12-23T13:48:51.113Z,0.90
2022-12-23T13:52:11.549Z,0.67
2022-12-23T13:55:16.417Z,0.30
2022-12-23T13:58:23.263Z,0.63
2022-12-23T14:01:43.325Z,0.60
2022-12-23T14:04:54.812Z,0.70
2022-12-23T14:08:02.201Z,0.80
2022-12-23T14:11:20.312Z,0.70
2022-12-23T14:14:24.378Z,1.83
2022-12-23T14:17:37.616Z,3.00
2022-12-23T14:20:52.013Z,2.00
2022-12-23T14:24:04.564Z,2.20
2022-12-23T14:27:44.769Z,1.60
2022-12-23T14:30:47.175Z,1.47
2022-12-23T14:33:50.372Z,1.50
2022-12-23T14:37:26.019Z,1.70
2022-12-23T14:40:39.990Z,8.00
2022-12-23T14:43:44.711Z,3.20
2022-12-23T14:46:47.300Z,6.03
2022-12-23T14:49:49.371Z,2.47
2022-12-23T14:52:59.864Z,3.40
2022-12-23T14:56:19.646Z,3.17
2022-12-23T14:59:33.935Z,4.27
2022-12-23T15:02:37.606Z,2.97
2022-12-23T15:05:40.708Z,3.30
2022-12-23T15:08:43.240Z,2.50
2022-12-23T15:11:45.371Z,2.10
2022-12-23T15:14:51.818Z,2.17
2022-12-23T15:18:02.257Z,1.93
2022-12-23T15:21:13.603Z,2.20
2022-12-23T15:24:21.673Z,2.80
2022-12-23T15:27:28.711Z,2.53
2022-12-23T15:30:35.944Z,3.00
2022-12-23T15:37:02.110Z,3.50
2022-12-23T15:40:15.359Z,4.13
2022-12-23T15:43:20.484Z,3.60
2022-12-23T15:46:29.844Z,3.37
2022-12-23T15:49:32.624Z,3.10
2022-12-23T15:52:34.477Z,3.33
2022-12-23T15:55:40.888Z,3.13
2022-12-23T15:58:44.184Z,3.53
2022-12-23T16:01:46.278Z,3.57
2022-12-23T16:04:55.431Z,3.73
2022-12-23T16:08:23.217Z,3.37
2022-12-23T16:11:39.145Z,3.63
2022-12-23T16:14:42.145Z,4.03
2022-12-23T16:17:45.140Z,4.10
2022-12-23T16:20:59.791Z,4.13
2022-12-23T16:24:06.811Z,4.70
2022-12-23T16:27:14.401Z,5.60
2022-12-23T16:30:19.588Z,5.47
2022-12-23T16:33:57.485Z,6.13
2022-12-23T16:36:59.468Z,7.23
2022-12-23T16:40:07.024Z,5.47
2022-12-23T16:43:09.311Z,3.33
2022-12-23T16:46:16.834Z,3.27
2022-12-23T16:49:28.004Z,2.90
2022-12-23T16:52:33.564Z,3.60
2022-12-23T16:55:36.032Z,4.47
2022-12-23T16:58:38.821Z,3.53
2022-12-23T17:01:43.152Z,4.63
2022-12-23T17:04:46.074Z,3.80
2022-12-23T17:07:48.394Z,3.43
2022-12-23T17:10:50.990Z,2.77
2022-12-23T17:13:56.678Z,2.70
2022-12-23T17:17:04.224Z,2.23
2022-12-23T17:20:07.368Z,3.10
2022-12-23T17:23:29.375Z,2.47
2022-12-23T17:26:31.532Z,4.83
2022-12-23T17:29:33.636Z,3.87
2022-12-23T17:32:35.634Z,3.60
2022-12-23T17:35:37.726Z,2.37
2022-12-23T17:38:54.318Z,2.67
2022-12-23T17:41:56.271Z,2.70
2022-12-23T17:44:58.127Z,2.53
2022-12-23T17:48:00.594Z,2.53
2022-12-23T17:51:02.899Z,2.07
2022-12-23T17:54:06.702Z,2.13
2022-12-23T17:57:17.778Z,2.40
2022-12-23T18:00:29.876Z,2.47
2022-12-23T18:03:36.019Z,3.93
2022-12-23T18:06:38.038Z,3.03
2022-12-23T18:09:40.150Z,2.07
2022-12-23T18:12:43.310Z,1.47
2022-12-23T18:15:46.086Z,1.30
2022-12-23T18:18:48.396Z,1.40
2022-12-23T18:21:50.912Z,1.70
2022-12-23T18:24:58.843Z,1.13
2022-12-23T18:28:01.324Z,1.40
2022-12-23T18:31:03.364Z,2.83
2022-12-23T18:34:05.405Z,1.93
2022-12-23T18:37:10.360Z,2.10
2022-12-23T18:40:12.522Z,3.17
2022-12-23T18:43:26.495Z,3.47
2022-12-23T18:46:28.511Z,4.40
2022-12-23T18:49:30.585Z,8.43
2022-12-23T18:52:32.524Z,2.60
2022-12-23T18:55:34.731Z,1.97
2022-12-23T18:58:37.129Z,1.93
2022-12-23T19:01:39.298Z,2.17
2022-12-23T19:04:41.604Z,1.47
2022-12-23T19:07:44.380Z,1.70
2022-12-23T19:10:47.471Z,1.50
2022-12-23T19:13:50.117Z,2.50
2022-12-23T19:16:52.743Z,2.47
2022-12-23T19:19:55.225Z,2.23
2022-12-23T19:22:57.165Z,2.73
2022-12-23T19:26:13.264Z,2.27
2022-12-23T19:29:16.033Z,2.90
2022-12-23T19:32:18.102Z,2.83
2022-12-23T19:35:21.321Z,2.37
2022-12-23T19:38:23.509Z,3.60
2022-12-23T19:41:26.289Z,3.80
2022-12-23T19:44:28.789Z,3.47
2022-12-23T19:47:30.723Z,2.83
2022-12-23T19:50:32.740Z,2.43
2022-12-23T19:53:35.381Z,2.20
2022-12-23T19:56:37.631Z,1.40
2022-12-23T19:59:39.565Z,1.60
2022-12-23T20:02:41.997Z,1.50
2022-12-23T20:05:48.817Z,2.40
2022-12-23T20:08:54.911Z,1.63
2022-12-23T20:12:00.826Z,1.20
2022-12-23T20:15:02.775Z,1.73
2022-12-23T20:18:04.902Z,2.60
2022-12-23T20:21:07.327Z,2.00
2022-12-23T20:24:09.967Z,1.90
2022-12-23T20:27:14.837Z,2.07
2022-12-23T20:30:17.840Z,1.90
2022-12-23T20:33:19.855Z,3.30
2022-12-23T20:36:25.733Z,2.20
2022-12-23T20:39:27.884Z,2.00
2022-12-23T20:42:29.965Z,1.70
2022-12-23T20:45:32.067Z,1.90
2022-12-23T20:48:35.034Z,1.47
2022-12-23T20:51:36.973Z,1.23
2022-12-23T20:54:40.052Z,0.50
2022-12-23T20:57:44.933Z,0.60
2022-12-23T21:00:47.318Z,0.43
2022-12-23T21:03:49.736Z,1.90
2022-12-23T21:06:51.720Z,0.90
2022-12-23T21:09:53.639Z,0.70
2022-12-23T21:12:55.600Z,0.73
2022-12-23T21:16:05.143Z,1.40
2022-12-23T21:19:10.213Z,0.80
2022-12-23T21:22:12.315Z,1.20
2022-12-23T21:25:14.513Z,0.90
2022-12-23T21:28:17.017Z,0.90
2022-12-23T21:31:21.925Z,1.00
2022-12-23T21:34:24.060Z,0.90
2022-12-23T21:37:29.144Z,0.80
2022-12-23T21:40:31.186Z,1.00
2022-12-23T21:43:33.587Z,1.00
2022-12-23T21:46:35.964Z,0.90
2022-12-23T21:49:37.949Z,1.00
2022-12-23T21:52:40.251Z,0.50
2022-12-23T21:55:49.296Z,0.50
2022-12-23T21:59:04.134Z,0.70
2022-12-23T22:02:05.996Z,0.90
2022-12-23T22:05:08.410Z,0.80
2022-12-23T22:08:10.411Z,0.87
2022-12-23T22:11:16.984Z,0.90
2022-12-23T22:14:20.091Z,0.70
2022-12-23T22:17:22.085Z,0.70
2022-12-23T22:20:23.951Z,0.80
2022-12-23T22:23:27.181Z,1.00
2022-12-23T22:26:32.264Z,1.00
2022-12-23T22:29:35.138Z,0.90
2022-12-23T22:32:42.419Z,0.80
2022-12-23T22:35:55.674Z,1.10
2022-12-23T22:39:00.186Z,0.80
2022-12-23T22:42:02.961Z,0.80
2022-12-23T22:45:09.731Z,0.80
2022-12-23T22:48:12.390Z,0.80
2022-12-23T22:51:20.129Z,0.73
2022-12-23T22:54:22.435Z,0.70
2022-12-23T22:57:24.657Z,0.70
2022-12-23T23:00:26.994Z,0.80
2022-12-23T23:03:29.561Z,1.10
2022-12-23T23:06:40.508Z,0.80
2022-12-23T23:09:42.655Z,0.70
2022-12-23T23:12:44.690Z,0.83
2022-12-23T23:15:49.988Z,0.83
2022-12-23T23:18:52.563Z,0.70
2022-12-23T23:21:55.834Z,0.83
2022-12-23T23:24:58.006Z,0.73
2022-12-23T23:28:00.206Z,0.83
2022-12-23T23:31:40.010Z,0.50
2022-12-23T23:34:24.983Z,0.90
2022-12-23T23:37:27.005Z,0.80
2022-12-23T23:40:29.753Z,1.00
2022-12-23T23:43:31.762Z,0.70
2022-12-23T23:46:34.408Z,0.60
2022-12-23T23:49:36.457Z,2.20
2022-12-23T23:52:39.315Z,0.80
2022-12-23T23:55:42.055Z,0.70
2022-12-23T23:58:43.972Z,0.70
